Nichioh Maru — JD3267 — position and weather

sailwx.info

Track history (hours):
 
Tides and Currents Weather Stations Pressure Air Temp Water Temp Dewpoint Dewpoint Depression Visibility Wind Speed Wind Dir Waves Ship Positions

Nichioh Maru

Last reported at 2017-May-30 12:55 UTC. Time now 2017-May-30 13:07 UTC.
Position N 35°20' E 139°41'.

Length 170 m; draft 6.5 m.

Type: Cargo ship. MMSI: 431003232.

Date/timePositionNaut miles runAvg speedWind from/ knotsBaromVisibWave heightAir tempDewpointWater temp
2017-May-30 12:55N 35°20' E 139°41'0 0.1
2017-May-30 12:30N 35°20' E 139°41'4 8.6
2017-May-30 12:00N 35°17' E 139°45'612.4
2017-May-30 11:30N 35°11' E 139°47'917.4
2017-May-30 11:00N 35°03' E 139°42'1121.1
2017-May-30 10:30N 34°56' E 139°32'231 9.5
2017-May-29 10:15N 34°07' E 134°58'416.2
2017-May-29 09:59N 34°11' E 134°58'916.9
2017-May-29 09:27N 34°20' E 134°59'817.7
2017-May-29 09:00N 34°27' E 135°05'918.2
2017-May-29 08:30N 34°33' E 135°12'714.2
2017-May-29 08:00N 34°40' E 135°15'2 3.4
2017-May-29 07:30N 34°41' E 135°13'0 0.0
2017-May-29 07:00N 34°41' E 135°13'0 0.0
2017-May-29 06:30N 34°41' E 135°13'0 0.0
2017-May-29 06:00N 34°41' E 135°13'0 0.0
2017-May-29 05:18N 34°41' E 135°13'0 0.0
2017-May-29 05:00N 34°41' E 135°13'0 0.0
2017-May-29 04:30N 34°41' E 135°13'0 0.0
2017-May-29 03:54N 34°41' E 135°13'0 0.0
2017-May-29 03:30N 34°41' E 135°13'0 0.0
2017-May-29 02:48N 34°41' E 135°13'0 0.0
2017-May-29 02:30N 34°41' E 135°13'0 0.0
2017-May-29 01:48N 34°41' E 135°13'0 0.0
2017-May-29 01:30N 34°41' E 135°13'3 6.3
2017-May-29 01:00N 34°38' E 135°16'917.2
2017-May-29 00:30N 34°34' E 135°07'917.4
2017-May-28 23:59N 34°36' E 134°56'  
2017-May-26 09:24N 34°36' E 134°54'820.4
2017-May-26 09:01N 34°36' E 135°03'918.3
2017-May-26 08:30N 34°37' E 135°15'4 7.1
2017-May-26 08:01N 34°41' E 135°13'0 0.3
2017-May-26 07:25N 34°41' E 135°13'0 0.0
2017-May-26 06:43N 34°41' E 135°13'0 0.0
2017-May-26 06:19N 34°41' E 135°13'0 0.0
2017-May-26 05:49N 34°41' E 135°13'0 0.0
2017-May-26 05:19N 34°41' E 135°13'0 0.0
2017-May-26 04:55N 34°41' E 135°13'0 0.0
2017-May-26 04:25N 34°41' E 135°13'0 0.0
2017-May-26 03:49N 34°41' E 135°13'0 0.0
2017-May-26 03:25N 34°41' E 135°13'0 0.0
2017-May-26 02:55N 34°41' E 135°13'0 0.0
2017-May-26 02:25N 34°41' E 135°13'0 0.0
2017-May-26 01:55N 34°41' E 135°13'0 0.0
2017-May-26 01:25N 34°41' E 135°13'0 0.0
2017-May-26 00:49N 34°41' E 135°13'0 0.0
2017-May-26 00:25N 34°41' E 135°13'1 1.8
2017-May-26 00:00N 34°41' E 135°14'510.7
2017-May-25 23:30N 34°35' E 135°15'917.6
2017-May-25 23:00N 34°28' E 135°09'918.2
2017-May-25 22:30N 34°21' E 135°02'917.6
2017-May-25 22:00N 34°13' E 134°60'918.6
2017-May-25 21:30N 34°03' E 134°60'229 7.0
2017-May-24 12:36N 34°56' E 139°30'219.5
2017-May-24 12:29N 34°58' E 139°32'919.4
2017-May-24 12:00N 35°04' E 139°40'917.4
2017-May-24 11:30N 35°12' E 139°46'611.9
2017-May-24 11:01N 35°18' E 139°44'611.6
2017-May-24 10:30N 35°23' E 139°42'714.8
2017-May-24 10:00N 35°29' E 139°48'2 3.8
2017-May-24 09:31N 35°30' E 139°46'0 0.0
2017-May-24 08:59N 35°30' E 139°46'0 0.0
2017-May-24 08:29N 35°30' E 139°46'0 0.0
2017-May-24 07:59N 35°30' E 139°46'0 0.0
2017-May-24 07:29N 35°30' E 139°46'0 0.0
2017-May-24 06:59N 35°30' E 139°46'0 0.0
2017-May-24 06:29N 35°30' E 139°46'0 0.0
2017-May-24 05:59N 35°30' E 139°46'0 0.0
2017-May-24 05:29N 35°30' E 139°46'0 0.0
2017-May-24 04:59N 35°30' E 139°46'0 0.0
2017-May-24 04:29N 35°30' E 139°46'0 0.0
2017-May-24 03:59N 35°30' E 139°46'0 0.0
2017-May-24 03:29N 35°30' E 139°46'1 1.6
2017-May-24 03:00N 35°30' E 139°45'4 7.6
2017-May-24 02:30N 35°27' E 139°43'4 8.9
2017-May-24 02:00N 35°22' E 139°45'612.4
2017-May-24 01:30N 35°19' E 139°39'0 0.7
2017-May-24 00:59N 35°19' E 139°39'0 0.0
2017-May-24 00:29N 35°19' E 139°39'0 0.0
2017-May-23 23:59N 35°19' E 139°39'0 0.0
2017-May-23 23:29N 35°19' E 139°39'0 0.0
2017-May-23 22:59N 35°19' E 139°39'0 0.0
2017-May-23 22:29N 35°19' E 139°39'0 0.0
2017-May-23 21:56N 35°19' E 139°39'0 0.0
2017-May-23 21:29N 35°19' E 139°39'0 0.4
2017-May-23 21:00N 35°19' E 139°39'2 3.8
2017-May-23 20:30N 35°20' E 139°41'0 0.0
2017-May-23 20:00N 35°20' E 139°41'0 0.1
2017-May-23 19:30N 35°20' E 139°41'0 0.0
2017-May-23 19:00N 35°20' E 139°41'0 0.1
2017-May-23 18:30N 35°20' E 139°41'0 0.0
2017-May-23 18:00N 35°20' E 139°41'0 0.0
2017-May-23 17:30N 35°20' E 139°41'0 0.0
2017-May-23 17:00N 35°20' E 139°41'0 0.0
2017-May-23 16:30N 35°20' E 139°41'0 0.0
2017-May-23 16:00N 35°20' E 139°41'0 0.0
2017-May-23 15:30N 35°20' E 139°41'0 0.0
2017-May-23 15:00N 35°20' E 139°41'0 0.0
2017-May-23 14:30N 35°20' E 139°41'0 0.0
2017-May-23 13:30N 35°20' E 139°41'0 0.0
2017-May-23 13:00N 35°20' E 139°41'0 0.1
2017-May-23 12:30N 35°20' E 139°41'0 0.2
2017-May-23 12:00N 35°20' E 139°41'510.1
2017-May-23 11:30N 35°16' E 139°46'713.7
2017-May-23 11:00N 35°09' E 139°46'1120.9
2017-May-23 10:30N 35°01' E 139°38'1121.5
2017-May-23 10:00N 34°55' E 139°28'1121.1
2017-May-23 09:30N 34°48' E 139°18'218 9.3
2017-May-22 09:57N 34°06' E 134°58'614.3
2017-May-22 09:30N 34°12' E 134°58'1015.4
2017-May-22 08:53N 34°22' E 135°00'616.2
2017-May-22 08:30N 34°26' E 135°05'816.3
2017-May-22 08:00N 34°31' E 135°13'714.3
2017-May-22 07:30N 34°38' E 135°16'4 7.1
2017-May-22 07:00N 34°41' E 135°13'0 0.2
2017-May-22 06:29N 34°41' E 135°13'0 0.0
2017-May-22 05:59N 34°41' E 135°13'0 0.0
2017-May-22 05:24N 34°41' E 135°13'0 0.0
2017-May-22 04:59N 34°41' E 135°13'0 0.0
2017-May-22 04:29N 34°41' E 135°13'0 0.0
2017-May-22 03:59N 34°41' E 135°13'0 0.0
2017-May-22 03:23N 34°41' E 135°13'0 0.0
2017-May-22 02:59N 34°41' E 135°13'0 0.0
2017-May-22 02:30N 34°41' E 135°13'0 0.0
2017-May-22 02:00N 34°41' E 135°13'0 0.0
2017-May-22 01:29N 34°41' E 135°13'0 0.0
2017-May-22 00:59N 34°41' E 135°13'0 0.0
2017-May-22 00:29N 34°41' E 135°13'0 0.0
2017-May-22 00:00N 34°41' E 135°13'3 5.9
2017-May-21 23:30N 34°39' E 135°16'714.5
2017-May-21 23:01N 34°35' E 135°09'916.9
2017-May-21 22:30N 34°37' E 134°58'917.2
2017-May-21 22:00N 34°33' E 134°49'  
Track history (hours):
 
Tides and Currents Weather Stations Pressure Air Temp Water Temp Dewpoint Dewpoint Depression Visibility Wind Speed Wind Dir Waves Ship Positions

Nichioh Maru

Last reported at 2017-May-30 12:55 UTC. Time now 2017-May-30 13:07 UTC.
Position N 35°20' E 139°41'.

Length 170 m; draft 6.5 m.

Type: Cargo ship. MMSI: 431003232.

Date/timePositionNaut miles runAvg speedWind from/ knotsBaromVisibWave heightAir tempDewpointWater temp
2017-May-30 12:55N 35°20' E 139°41'0 0.1
2017-May-30 12:30N 35°20' E 139°41'4 8.6
2017-May-30 12:00N 35°17' E 139°45'612.4
2017-May-30 11:30N 35°11' E 139°47'917.4
2017-May-30 11:00N 35°03' E 139°42'1121.1
2017-May-30 10:30N 34°56' E 139°32'231 9.5
2017-May-29 10:15N 34°07' E 134°58'416.2
2017-May-29 09:59N 34°11' E 134°58'916.9
2017-May-29 09:27N 34°20' E 134°59'817.7
2017-May-29 09:00N 34°27' E 135°05'918.2
2017-May-29 08:30N 34°33' E 135°12'714.2
2017-May-29 08:00N 34°40' E 135°15'2 3.4
2017-May-29 07:30N 34°41' E 135°13'0 0.0
2017-May-29 07:00N 34°41' E 135°13'0 0.0
2017-May-29 06:30N 34°41' E 135°13'0 0.0
2017-May-29 06:00N 34°41' E 135°13'0 0.0
2017-May-29 05:18N 34°41' E 135°13'0 0.0
2017-May-29 05:00N 34°41' E 135°13'0 0.0
2017-May-29 04:30N 34°41' E 135°13'0 0.0
2017-May-29 03:54N 34°41' E 135°13'0 0.0
2017-May-29 03:30N 34°41' E 135°13'0 0.0
2017-May-29 02:48N 34°41' E 135°13'0 0.0
2017-May-29 02:30N 34°41' E 135°13'0 0.0
2017-May-29 01:48N 34°41' E 135°13'0 0.0
2017-May-29 01:30N 34°41' E 135°13'3 6.3
2017-May-29 01:00N 34°38' E 135°16'917.2
2017-May-29 00:30N 34°34' E 135°07'917.4
2017-May-28 23:59N 34°36' E 134°56'  
2017-May-26 09:24N 34°36' E 134°54'820.4
2017-May-26 09:01N 34°36' E 135°03'918.3
2017-May-26 08:30N 34°37' E 135°15'4 7.1
2017-May-26 08:01N 34°41' E 135°13'0 0.3
2017-May-26 07:25N 34°41' E 135°13'0 0.0
2017-May-26 06:43N 34°41' E 135°13'0 0.0
2017-May-26 06:19N 34°41' E 135°13'0 0.0
2017-May-26 05:49N 34°41' E 135°13'0 0.0
2017-May-26 05:19N 34°41' E 135°13'0 0.0
2017-May-26 04:55N 34°41' E 135°13'0 0.0
2017-May-26 04:25N 34°41' E 135°13'0 0.0
2017-May-26 03:49N 34°41' E 135°13'0 0.0
2017-May-26 03:25N 34°41' E 135°13'0 0.0
2017-May-26 02:55N 34°41' E 135°13'0 0.0
2017-May-26 02:25N 34°41' E 135°13'0 0.0
2017-May-26 01:55N 34°41' E 135°13'0 0.0
2017-May-26 01:25N 34°41' E 135°13'0 0.0
2017-May-26 00:49N 34°41' E 135°13'0 0.0
2017-May-26 00:25N 34°41' E 135°13'1 1.8
2017-May-26 00:00N 34°41' E 135°14'510.7
2017-May-25 23:30N 34°35' E 135°15'917.6
2017-May-25 23:00N 34°28' E 135°09'918.2
2017-May-25 22:30N 34°21' E 135°02'917.6
2017-May-25 22:00N 34°13' E 134°60'918.6
2017-May-25 21:30N 34°03' E 134°60'229 7.0
2017-May-24 12:36N 34°56' E 139°30'219.5
2017-May-24 12:29N 34°58' E 139°32'919.4
2017-May-24 12:00N 35°04' E 139°40'917.4
2017-May-24 11:30N 35°12' E 139°46'611.9
2017-May-24 11:01N 35°18' E 139°44'611.6
2017-May-24 10:30N 35°23' E 139°42'714.8
2017-May-24 10:00N 35°29' E 139°48'2 3.8
2017-May-24 09:31N 35°30' E 139°46'0 0.0
2017-May-24 08:59N 35°30' E 139°46'0 0.0
2017-May-24 08:29N 35°30' E 139°46'0 0.0
2017-May-24 07:59N 35°30' E 139°46'0 0.0
2017-May-24 07:29N 35°30' E 139°46'0 0.0
2017-May-24 06:59N 35°30' E 139°46'0 0.0
2017-May-24 06:29N 35°30' E 139°46'0 0.0
2017-May-24 05:59N 35°30' E 139°46'0 0.0
2017-May-24 05:29N 35°30' E 139°46'0 0.0
2017-May-24 04:59N 35°30' E 139°46'0 0.0
2017-May-24 04:29N 35°30' E 139°46'0 0.0
2017-May-24 03:59N 35°30' E 139°46'0 0.0
2017-May-24 03:29N 35°30' E 139°46'1 1.6
2017-May-24 03:00N 35°30' E 139°45'4 7.6
2017-May-24 02:30N 35°27' E 139°43'4 8.9
2017-May-24 02:00N 35°22' E 139°45'612.4
2017-May-24 01:30N 35°19' E 139°39'0 0.7
2017-May-24 00:59N 35°19' E 139°39'0 0.0
2017-May-24 00:29N 35°19' E 139°39'0 0.0
2017-May-23 23:59N 35°19' E 139°39'0 0.0
2017-May-23 23:29N 35°19' E 139°39'0 0.0
2017-May-23 22:59N 35°19' E 139°39'0 0.0
2017-May-23 22:29N 35°19' E 139°39'0 0.0
2017-May-23 21:56N 35°19' E 139°39'0 0.0
2017-May-23 21:29N 35°19' E 139°39'0 0.4
2017-May-23 21:00N 35°19' E 139°39'2 3.8
2017-May-23 20:30N 35°20' E 139°41'0 0.0
2017-May-23 20:00N 35°20' E 139°41'0 0.1
2017-May-23 19:30N 35°20' E 139°41'0 0.0
2017-May-23 19:00N 35°20' E 139°41'0 0.1
2017-May-23 18:30N 35°20' E 139°41'0 0.0
2017-May-23 18:00N 35°20' E 139°41'0 0.0
2017-May-23 17:30N 35°20' E 139°41'0 0.0
2017-May-23 17:00N 35°20' E 139°41'0 0.0
2017-May-23 16:30N 35°20' E 139°41'0 0.0
2017-May-23 16:00N 35°20' E 139°41'0 0.0
2017-May-23 15:30N 35°20' E 139°41'0 0.0
2017-May-23 15:00N 35°20' E 139°41'0 0.0
2017-May-23 14:30N 35°20' E 139°41'0 0.0
2017-May-23 13:30N 35°20' E 139°41'0 0.0
2017-May-23 13:00N 35°20' E 139°41'0 0.1
2017-May-23 12:30N 35°20' E 139°41'0 0.2
2017-May-23 12:00N 35°20' E 139°41'510.1
2017-May-23 11:30N 35°16' E 139°46'713.7
2017-May-23 11:00N 35°09' E 139°46'1120.9
2017-May-23 10:30N 35°01' E 139°38'1121.5
2017-May-23 10:00N 34°55' E 139°28'1121.1
2017-May-23 09:30N 34°48' E 139°18'218 9.3
2017-May-22 09:57N 34°06' E 134°58'614.3
2017-May-22 09:30N 34°12' E 134°58'1015.4
2017-May-22 08:53N 34°22' E 135°00'616.2
2017-May-22 08:30N 34°26' E 135°05'816.3
2017-May-22 08:00N 34°31' E 135°13'714.3
2017-May-22 07:30N 34°38' E 135°16'4 7.1
2017-May-22 07:00N 34°41' E 135°13'0 0.2
2017-May-22 06:29N 34°41' E 135°13'0 0.0
2017-May-22 05:59N 34°41' E 135°13'0 0.0
2017-May-22 05:24N 34°41' E 135°13'0 0.0
2017-May-22 04:59N 34°41' E 135°13'0 0.0
2017-May-22 04:29N 34°41' E 135°13'0 0.0
2017-May-22 03:59N 34°41' E 135°13'0 0.0
2017-May-22 03:23N 34°41' E 135°13'0 0.0
2017-May-22 02:59N 34°41' E 135°13'0 0.0
2017-May-22 02:30N 34°41' E 135°13'0 0.0
2017-May-22 02:00N 34°41' E 135°13'0 0.0
2017-May-22 01:29N 34°41' E 135°13'0 0.0
2017-May-22 00:59N 34°41' E 135°13'0 0.0
2017-May-22 00:29N 34°41' E 135°13'0 0.0
2017-May-22 00:00N 34°41' E 135°13'3 5.9
2017-May-21 23:30N 34°39' E 135°16'714.5
2017-May-21 23:01N 34°35' E 135°09'916.9
2017-May-21 22:30N 34°37' E 134°58'917.2
2017-May-21 22:00N 34°33' E 134°49'  

Dump ship's entire track history